createdAt,value
2023-05-21T00:00:38.724Z,69.15
2023-05-21T00:02:41.648Z,69.35
2023-05-21T00:04:45.331Z,69.27
2023-05-21T00:06:48.187Z,69.43
2023-05-21T00:08:51.160Z,69.48
2023-05-21T00:10:53.734Z,69.60
2023-05-21T00:12:56.284Z,69.82
2023-05-21T00:14:59.980Z,70.07
2023-05-21T00:17:02.768Z,70.01
2023-05-21T00:19:05.503Z,70.02
2023-05-21T00:21:08.237Z,70.09
2023-05-21T00:23:10.785Z,70.76
2023-05-21T00:25:13.572Z,70.57
2023-05-21T00:27:16.358Z,70.90
2023-05-21T00:29:18.930Z,71.05
2023-05-21T00:31:21.979Z,70.97
2023-05-21T00:33:26.729Z,70.96
2023-05-21T00:35:29.596Z,71.24
2023-05-21T00:37:34.464Z,71.19
2023-05-21T00:39:37.651Z,71.41
2023-05-21T00:41:40.685Z,71.48
2023-05-21T00:43:44.759Z,71.40
2023-05-21T00:45:48.681Z,71.52
2023-05-21T00:47:54.762Z,71.18
2023-05-21T00:49:57.533Z,71.62
2023-05-21T00:52:01.949Z,71.48
2023-05-21T00:54:04.581Z,71.31
2023-05-21T00:56:07.792Z,71.27
2023-05-21T00:58:10.890Z,70.89
2023-05-21T01:00:14.940Z,71.00
2023-05-21T01:02:20.942Z,70.87
2023-05-21T01:04:26.451Z,70.87
2023-05-21T01:06:29.224Z,70.92
2023-05-21T01:08:32.497Z,70.93
2023-05-21T01:10:35.217Z,70.94
2023-05-21T01:12:39.970Z,70.90
2023-05-21T01:14:42.796Z,70.65
2023-05-21T01:16:49.735Z,70.76
2023-05-21T01:18:54.234Z,70.71
2023-05-21T01:20:56.982Z,70.52
2023-05-21T01:22:59.912Z,70.59
2023-05-21T01:25:03.874Z,70.71
2023-05-21T01:27:07.869Z,70.67
2023-05-21T01:29:13.351Z,70.70
2023-05-21T01:31:51.514Z,70.83
2023-05-21T01:33:57.038Z,70.75
2023-05-21T01:36:06.075Z,70.55
2023-05-21T01:38:17.509Z,70.57
2023-05-21T01:40:30.188Z,70.48
2023-05-21T01:42:36.368Z,70.39
2023-05-21T01:44:40.284Z,70.58
2023-05-21T01:46:42.858Z,70.37
2023-05-21T01:48:46.293Z,70.41
2023-05-21T01:50:50.098Z,70.10
2023-05-21T01:52:54.663Z,69.75
2023-05-21T01:54:58.136Z,69.99
2023-05-21T01:57:01.816Z,69.83
2023-05-21T01:59:06.057Z,70.25
2023-05-21T02:01:09.046Z,70.18
2023-05-21T02:03:13.068Z,69.69
2023-05-21T02:05:15.978Z,69.37
2023-05-21T02:07:18.945Z,69.29
2023-05-21T02:09:21.579Z,69.63
2023-05-21T02:11:24.159Z,69.60
2023-05-21T02:13:27.151Z,68.93
2023-05-21T02:15:30.589Z,69.22
2023-05-21T02:17:34.360Z,69.32
2023-05-21T02:19:37.820Z,69.62
2023-05-21T02:21:40.703Z,70.32
2023-05-21T02:23:43.557Z,70.63
2023-05-21T02:25:46.492Z,70.39
2023-05-21T02:27:54.173Z,69.81
2023-05-21T02:29:56.821Z,69.71
2023-05-21T02:31:59.582Z,70.15
2023-05-21T02:34:02.286Z,69.79
2023-05-21T02:36:05.708Z,70.06
2023-05-21T02:38:09.458Z,70.02
2023-05-21T02:40:13.246Z,70.51
2023-05-21T02:42:16.185Z,70.17
2023-05-21T02:44:19.560Z,70.13
2023-05-21T02:46:22.379Z,69.82
2023-05-21T02:48:25.167Z,69.82
2023-05-21T02:50:28.116Z,68.93
2023-05-21T02:52:30.890Z,68.57
2023-05-21T02:54:33.495Z,68.02
2023-05-21T02:56:36.254Z,67.82
2023-05-21T02:58:38.909Z,67.93
2023-05-21T03:00:42.004Z,66.80
2023-05-21T03:02:44.824Z,66.13
2023-05-21T03:04:48.021Z,66.16
2023-05-21T03:06:55.290Z,65.15
2023-05-21T03:08:58.059Z,65.67
2023-05-21T03:11:00.652Z,65.57
2023-05-21T03:13:06.395Z,65.17
2023-05-21T03:15:11.019Z,65.60
2023-05-21T03:17:17.232Z,65.67
2023-05-21T03:19:21.082Z,65.55
2023-05-21T03:21:23.782Z,65.66
2023-05-21T03:23:27.130Z,65.58
2023-05-21T03:25:30.108Z,65.90
2023-05-21T03:27:32.947Z,65.73
2023-05-21T03:29:36.306Z,66.37
2023-05-21T03:31:39.411Z,67.03
2023-05-21T03:33:42.460Z,66.88
2023-05-21T03:35:45.181Z,66.52
2023-05-21T03:37:47.867Z,66.22
2023-05-21T03:39:51.112Z,65.45
2023-05-21T03:41:53.787Z,63.29
2023-05-21T03:43:56.588Z,63.98
2023-05-21T03:45:59.435Z,64.14
2023-05-21T03:48:02.250Z,63.16
2023-05-21T03:50:05.930Z,61.71
2023-05-21T03:52:09.139Z,63.27
2023-05-21T03:54:11.922Z,62.33
2023-05-21T03:56:14.737Z,61.78
2023-05-21T03:58:17.557Z,61.70
2023-05-21T04:00:20.277Z,61.36
2023-05-21T04:02:23.413Z,61.59
2023-05-21T04:04:26.347Z,61.71
2023-05-21T04:06:30.304Z,62.08
2023-05-21T04:08:33.006Z,61.87
2023-05-21T04:10:35.928Z,58.60
2023-05-21T04:12:38.624Z,58.48
2023-05-21T04:14:41.603Z,58.27
2023-05-21T04:16:44.401Z,57.20
2023-05-21T04:18:47.727Z,57.18
2023-05-21T04:20:50.512Z,56.93
2023-05-21T04:22:53.315Z,56.91
2023-05-21T04:24:56.109Z,56.77
2023-05-21T04:27:01.719Z,56.79
2023-05-21T04:29:05.186Z,57.03
2023-05-21T04:31:08.863Z,56.68
2023-05-21T04:33:11.556Z,56.76
2023-05-21T04:35:15.549Z,56.83
2023-05-21T04:37:18.238Z,56.78
2023-05-21T04:39:20.838Z,56.75
2023-05-21T04:41:23.551Z,56.76
2023-05-21T04:43:26.947Z,56.35
2023-05-21T04:45:29.606Z,56.83
2023-05-21T04:47:35.986Z,57.21
2023-05-21T04:49:38.859Z,56.80
2023-05-21T04:51:41.851Z,57.61
2023-05-21T04:53:45.076Z,58.36
2023-05-21T04:55:48.204Z,58.67
2023-05-21T04:57:51.298Z,57.96
2023-05-21T04:59:54.217Z,58.49
2023-05-21T05:01:56.814Z,57.87
2023-05-21T05:03:59.522Z,58.95
2023-05-21T05:06:04.596Z,58.60
2023-05-21T05:08:07.868Z,58.11
2023-05-21T05:10:10.705Z,58.72
2023-05-21T05:12:13.347Z,58.29
2023-05-21T05:14:16.392Z,57.84
2023-05-21T05:16:25.252Z,56.62
2023-05-21T05:18:29.867Z,57.24
2023-05-21T05:20:32.440Z,56.13
2023-05-21T05:22:35.072Z,53.69
2023-05-21T05:24:37.747Z,53.11
2023-05-21T05:26:40.496Z,52.76
2023-05-21T05:28:43.318Z,52.42
2023-05-21T05:30:46.019Z,51.40
2023-05-21T05:32:49.078Z,52.03
2023-05-21T05:34:51.657Z,51.68
2023-05-21T05:36:54.425Z,51.62
2023-05-21T05:38:57.160Z,51.08
2023-05-21T05:40:59.770Z,50.93
2023-05-21T05:43:02.477Z,50.28
2023-05-21T05:45:05.483Z,50.97
2023-05-21T05:47:10.987Z,50.48
2023-05-21T05:49:17.058Z,49.65
2023-05-21T05:51:19.752Z,48.31
2023-05-21T05:53:22.695Z,49.32
2023-05-21T05:55:26.985Z,47.91
2023-05-21T05:57:30.047Z,48.13
2023-05-21T05:59:33.999Z,47.60
2023-05-21T06:01:36.761Z,48.21
2023-05-21T06:03:39.423Z,47.95
2023-05-21T06:05:42.245Z,48.20
2023-05-21T06:07:44.958Z,46.55
2023-05-21T06:09:47.589Z,46.96
2023-05-21T06:11:50.552Z,46.87
2023-05-21T06:13:53.554Z,46.21
2023-05-21T06:15:56.398Z,47.16
2023-05-21T06:17:59.260Z,48.50
2023-05-21T06:20:02.065Z,48.39
2023-05-21T06:22:10.049Z,47.89
2023-05-21T06:24:12.640Z,49.07
2023-05-21T06:26:15.375Z,47.67
2023-05-21T06:28:18.129Z,47.09
2023-05-21T06:30:21.206Z,48.00
2023-05-21T06:32:25.421Z,47.90
2023-05-21T06:34:28.960Z,48.66
2023-05-21T06:36:32.680Z,47.36
2023-05-21T06:38:35.629Z,48.68
2023-05-21T06:40:39.830Z,48.25
2023-05-21T06:42:42.434Z,47.76
2023-05-21T06:44:45.304Z,47.96
2023-05-21T06:46:47.896Z,48.01
2023-05-21T06:48:50.605Z,49.06
2023-05-21T06:50:53.409Z,48.63
2023-05-21T06:52:55.999Z,48.33
2023-05-21T06:54:58.832Z,48.14
2023-05-21T06:57:01.970Z,47.95
2023-05-21T06:59:04.746Z,47.27
2023-05-21T07:01:07.711Z,42.61
2023-05-21T07:03:10.573Z,42.72
2023-05-21T07:05:13.250Z,45.32
2023-05-21T07:07:16.198Z,46.73
2023-05-21T07:09:19.137Z,45.66
2023-05-21T07:11:21.987Z,44.88
2023-05-21T07:13:25.154Z,45.38
2023-05-21T07:15:28.366Z,42.56
2023-05-21T07:17:31.011Z,44.78
2023-05-21T07:19:33.744Z,44.70
2023-05-21T07:21:36.620Z,43.90
2023-05-21T07:23:39.337Z,44.79
2023-05-21T07:25:41.945Z,42.52
2023-05-21T07:27:44.607Z,41.40
2023-05-21T07:29:47.235Z,42.41
2023-05-21T07:31:49.886Z,41.92
2023-05-21T07:33:52.848Z,41.21
2023-05-21T07:35:55.437Z,39.48
2023-05-21T07:37:58.106Z,39.49
2023-05-21T07:40:00.831Z,39.89
2023-05-21T07:42:03.529Z,40.25
2023-05-21T07:44:06.292Z,39.96
2023-05-21T07:46:09.745Z,40.05
2023-05-21T07:48:12.507Z,40.00
2023-05-21T07:50:15.300Z,39.11
2023-05-21T07:52:17.974Z,37.85
2023-05-21T07:54:20.717Z,38.11
2023-05-21T07:56:23.633Z,38.53
2023-05-21T07:58:26.508Z,37.87
2023-05-21T08:00:29.301Z,37.69
2023-05-21T08:02:32.187Z,35.10
2023-05-21T08:04:34.894Z,35.58
2023-05-21T08:06:37.788Z,37.66
2023-05-21T08:08:40.495Z,37.24
2023-05-21T08:10:43.205Z,35.99
2023-05-21T08:12:45.855Z,35.97
2023-05-21T08:14:48.610Z,34.79
2023-05-21T08:16:51.672Z,36.79
2023-05-21T08:18:54.350Z,36.54
2023-05-21T08:20:57.105Z,35.44
2023-05-21T08:23:02.949Z,34.80
2023-05-21T08:25:06.208Z,34.18
2023-05-21T08:27:09.017Z,34.06
2023-05-21T08:29:11.689Z,35.25
2023-05-21T08:31:14.301Z,34.95
2023-05-21T08:33:19.575Z,34.42
2023-05-21T08:35:23.648Z,32.69
2023-05-21T08:37:26.429Z,33.10
2023-05-21T08:39:29.164Z,34.53
2023-05-21T08:41:36.215Z,33.70
2023-05-21T08:43:39.782Z,33.71
2023-05-21T08:45:45.337Z,33.49
2023-05-21T08:47:48.458Z,33.03
2023-05-21T08:49:52.422Z,32.61
2023-05-21T08:51:55.950Z,34.60
2023-05-21T08:54:01.819Z,34.09
2023-05-21T08:56:05.541Z,33.52
2023-05-21T08:58:08.694Z,34.00
2023-05-21T09:00:12.491Z,34.22
2023-05-21T09:02:18.444Z,33.51
2023-05-21T09:04:22.027Z,33.98
2023-05-21T09:06:28.058Z,34.18
2023-05-21T09:08:36.002Z,34.08
2023-05-21T09:10:51.507Z,34.43
2023-05-21T09:12:54.497Z,36.05
2023-05-21T09:14:58.616Z,33.26
2023-05-21T09:17:01.672Z,33.72
2023-05-21T09:19:04.891Z,33.71
2023-05-21T09:21:29.635Z,33.46
2023-05-21T09:23:33.140Z,33.65
2023-05-21T09:25:38.817Z,32.98
2023-05-21T09:27:42.717Z,33.64
2023-05-21T09:29:45.383Z,33.78
2023-05-21T09:31:48.240Z,33.98
2023-05-21T09:33:51.888Z,34.40
2023-05-21T09:35:55.073Z,34.50
2023-05-21T09:37:57.899Z,34.43
2023-05-21T09:40:01.031Z,33.76
2023-05-21T09:42:04.723Z,33.11
2023-05-21T09:44:07.623Z,32.73
2023-05-21T09:46:10.697Z,34.34
2023-05-21T09:48:13.780Z,33.99
2023-05-21T09:50:21.303Z,31.23
2023-05-21T09:52:28.438Z,31.24
2023-05-21T09:54:35.207Z,30.72
2023-05-21T09:56:37.964Z,30.87
2023-05-21T09:58:40.982Z,31.42
2023-05-21T10:00:45.812Z,31.77
2023-05-21T10:02:50.492Z,30.98
2023-05-21T10:04:54.812Z,30.82
2023-05-21T10:07:00.287Z,29.72
2023-05-21T10:09:07.651Z,31.12
2023-05-21T10:11:11.686Z,30.96
2023-05-21T10:13:17.655Z,31.59
2023-05-21T10:15:23.835Z,30.73
2023-05-21T10:17:28.183Z,31.29
2023-05-21T10:19:33.234Z,31.36
2023-05-21T10:21:36.683Z,30.60
2023-05-21T10:23:40.952Z,31.72
2023-05-21T10:25:44.114Z,31.79
2023-05-21T10:27:48.431Z,31.46
2023-05-21T10:29:53.464Z,32.40
2023-05-21T10:31:56.743Z,32.88
2023-05-21T10:34:01.369Z,32.11
2023-05-21T10:36:04.401Z,33.49
2023-05-21T10:38:09.812Z,32.10
2023-05-21T10:40:13.402Z,30.89
2023-05-21T10:42:29.818Z,30.30
2023-05-21T10:45:08.550Z,31.31
2023-05-21T10:47:32.882Z,32.12
2023-05-21T10:49:54.046Z,31.76
2023-05-21T10:52:09.412Z,30.93
2023-05-21T10:54:54.461Z,30.50
2023-05-21T10:57:19.135Z,30.13
2023-05-21T10:59:41.301Z,29.46
2023-05-21T11:01:45.459Z,29.35
2023-05-21T11:03:51.522Z,29.02
2023-05-21T11:05:57.791Z,29.50
2023-05-21T11:08:01.805Z,28.14
2023-05-21T11:10:37.038Z,28.33
2023-05-21T11:13:07.188Z,28.21
2023-05-21T11:15:16.743Z,28.09
2023-05-21T11:17:42.291Z,27.35
2023-05-21T11:19:52.810Z,27.02
2023-05-21T11:21:55.776Z,27.90
2023-05-21T11:24:06.748Z,27.56
2023-05-21T11:26:09.605Z,27.92
2023-05-21T11:28:12.325Z,28.12
2023-05-21T11:30:17.444Z,27.01
2023-05-21T11:32:20.750Z,27.11
2023-05-21T11:34:32.231Z,27.71
2023-05-21T11:36:37.703Z,26.73
2023-05-21T11:38:40.462Z,27.32
2023-05-21T11:41:06.184Z,26.06
2023-05-21T11:43:08.978Z,25.85
2023-05-21T11:45:11.738Z,24.38
2023-05-21T11:47:19.409Z,25.21
2023-05-21T11:49:22.625Z,24.01
2023-05-21T11:51:25.867Z,23.75
2023-05-21T11:53:30.538Z,24.04
2023-05-21T11:55:33.387Z,23.39
2023-05-21T11:57:35.973Z,22.68
2023-05-21T11:59:39.053Z,22.53
2023-05-21T12:01:43.408Z,23.04
2023-05-21T12:03:46.318Z,23.20
2023-05-21T12:05:50.010Z,22.71
2023-05-21T12:07:54.817Z,23.89
2023-05-21T12:09:57.689Z,23.65
2023-05-21T12:12:01.790Z,23.74
2023-05-21T12:14:11.083Z,23.79
2023-05-21T12:16:14.289Z,23.33
2023-05-21T12:18:17.001Z,22.26
2023-05-21T12:20:20.201Z,22.83
2023-05-21T12:22:24.754Z,22.87
2023-05-21T12:24:27.599Z,22.47
2023-05-21T12:26:33.313Z,21.35
2023-05-21T12:28:37.341Z,21.85
2023-05-21T12:30:40.058Z,22.69
2023-05-21T12:32:46.710Z,20.59
2023-05-21T12:34:51.580Z,20.99
2023-05-21T12:36:54.531Z,22.06
2023-05-21T12:38:58.368Z,20.47
2023-05-21T12:41:05.143Z,19.77
2023-05-21T12:43:08.089Z,18.87
2023-05-21T12:45:11.837Z,19.62
2023-05-21T12:47:14.729Z,20.69
2023-05-21T12:49:34.433Z,18.64
2023-05-21T12:51:40.356Z,19.11
2023-05-21T12:53:43.632Z,19.82
2023-05-21T12:55:46.357Z,19.26
2023-05-21T12:57:49.195Z,18.67
2023-05-21T12:59:56.781Z,19.01
2023-05-21T13:02:00.813Z,18.08
2023-05-21T13:04:05.389Z,18.16
2023-05-21T13:06:09.236Z,19.14
2023-05-21T13:08:14.309Z,18.29
2023-05-21T13:10:17.151Z,19.91
2023-05-21T13:12:24.059Z,18.20
2023-05-21T13:14:26.665Z,18.56
2023-05-21T13:16:29.388Z,20.57
2023-05-21T13:18:32.088Z,19.57
2023-05-21T13:20:34.795Z,20.88
2023-05-21T13:22:48.002Z,19.94
2023-05-21T13:24:51.140Z,18.80
2023-05-21T13:26:54.053Z,20.12
2023-05-21T13:28:56.876Z,18.68
2023-05-21T13:30:59.559Z,18.29
2023-05-21T13:33:02.675Z,18.32
2023-05-21T13:35:06.175Z,17.70
2023-05-21T13:37:09.315Z,17.68
2023-05-21T13:39:12.018Z,19.26
2023-05-21T13:41:14.782Z,20.18
2023-05-21T13:43:17.430Z,20.49
2023-05-21T13:45:21.362Z,18.28
2023-05-21T13:47:24.506Z,19.21
2023-05-21T13:49:27.118Z,18.23
2023-05-21T13:51:38.592Z,17.69
2023-05-21T13:53:42.362Z,17.72
2023-05-21T13:55:45.100Z,18.90
2023-05-21T13:57:47.882Z,19.64
2023-05-21T13:59:51.073Z,17.46
2023-05-21T14:01:53.879Z,17.68
2023-05-21T14:03:56.665Z,20.32
2023-05-21T14:05:59.804Z,17.59
2023-05-21T14:08:03.205Z,18.14
2023-05-21T14:10:06.485Z,17.94
2023-05-21T14:12:09.584Z,17.70
2023-05-21T14:14:18.919Z,17.64
2023-05-21T14:16:24.965Z,18.73
2023-05-21T14:18:27.824Z,19.86
2023-05-21T14:20:30.496Z,18.16
2023-05-21T14:22:33.254Z,19.14
2023-05-21T14:24:35.975Z,19.26
2023-05-21T14:26:41.495Z,18.50
2023-05-21T14:28:45.154Z,18.26
2023-05-21T14:30:48.200Z,19.01
2023-05-21T14:32:50.955Z,19.33
2023-05-21T14:34:53.614Z,18.17
2023-05-21T14:36:56.304Z,19.66
2023-05-21T14:38:59.354Z,19.09
2023-05-21T14:41:02.218Z,17.52
2023-05-21T14:43:06.048Z,17.37
2023-05-21T14:45:18.667Z,19.07
2023-05-21T14:47:21.993Z,19.00
2023-05-21T14:49:24.706Z,18.41
2023-05-21T14:51:27.295Z,18.71
2023-05-21T14:53:29.927Z,18.39
2023-05-21T14:55:37.262Z,20.60
2023-05-21T14:57:40.310Z,18.77
2023-05-21T14:59:43.374Z,18.05
2023-05-21T15:01:46.143Z,17.99
2023-05-21T15:03:49.185Z,18.11
2023-05-21T15:05:52.070Z,19.18
2023-05-21T15:07:56.269Z,20.82
2023-05-21T15:09:59.061Z,19.70
2023-05-21T15:12:01.652Z,18.89
2023-05-21T15:14:04.438Z,18.24
2023-05-21T15:16:07.186Z,18.70
2023-05-21T15:18:10.070Z,17.71
2023-05-21T15:20:12.980Z,20.16
2023-05-21T15:22:15.595Z,19.30
2023-05-21T15:24:18.397Z,18.10
2023-05-21T15:26:21.771Z,19.06
2023-05-21T15:28:24.361Z,19.11
2023-05-21T15:30:27.495Z,19.54
2023-05-21T15:32:31.703Z,19.03
2023-05-21T15:34:34.529Z,19.20
2023-05-21T15:36:37.234Z,20.70
2023-05-21T15:38:39.839Z,20.49
2023-05-21T15:40:42.845Z,20.53
2023-05-21T15:42:45.533Z,21.20
2023-05-21T15:44:48.202Z,22.71
2023-05-21T15:46:51.484Z,22.61
2023-05-21T15:48:54.255Z,23.23
2023-05-21T15:50:56.980Z,23.83
2023-05-21T15:52:59.684Z,24.60
2023-05-21T15:55:02.445Z,24.06
2023-05-21T15:57:05.702Z,24.69
2023-05-21T15:59:08.359Z,24.07
2023-05-21T16:01:11.087Z,24.51
2023-05-21T16:03:13.961Z,24.79
2023-05-21T16:05:16.792Z,24.39
2023-05-21T16:07:19.752Z,25.45
2023-05-21T16:09:22.366Z,26.50
2023-05-21T16:11:26.454Z,25.17
2023-05-21T16:13:29.275Z,26.53
2023-05-21T16:15:32.615Z,25.83
2023-05-21T16:17:35.715Z,26.40
2023-05-21T16:19:39.102Z,28.80
2023-05-21T16:21:41.976Z,28.60
2023-05-21T16:23:44.733Z,27.45
2023-05-21T16:25:47.462Z,27.71
2023-05-21T16:27:49.995Z,29.46
2023-05-21T16:29:52.641Z,26.77
2023-05-21T16:31:55.276Z,27.87
2023-05-21T16:33:57.872Z,27.95
2023-05-21T16:36:00.706Z,29.49
2023-05-21T16:38:03.300Z,28.05
2023-05-21T16:40:06.653Z,28.98
2023-05-21T16:42:09.441Z,29.10
2023-05-21T16:44:12.071Z,30.27
2023-05-21T16:46:14.680Z,28.50
2023-05-21T16:48:17.580Z,29.65
2023-05-21T16:50:20.757Z,28.12
2023-05-21T16:52:24.090Z,29.81
2023-05-21T16:54:27.182Z,29.90
2023-05-21T16:56:31.087Z,30.88
2023-05-21T16:58:34.467Z,31.61
2023-05-21T17:00:37.430Z,30.11
2023-05-21T17:02:40.178Z,29.25
2023-05-21T17:04:42.924Z,30.18
2023-05-21T17:06:45.546Z,30.45
2023-05-21T17:08:48.131Z,30.25
2023-05-21T17:10:50.992Z,30.73
2023-05-21T17:12:54.026Z,31.17
2023-05-21T17:14:56.666Z,31.52
2023-05-21T17:16:59.308Z,32.02
2023-05-21T17:19:02.031Z,32.12
2023-05-21T17:21:04.881Z,31.56
2023-05-21T17:23:07.678Z,31.54
2023-05-21T17:25:10.672Z,33.43
2023-05-21T17:27:13.454Z,33.05
2023-05-21T17:29:16.048Z,31.55
2023-05-21T17:31:18.777Z,32.01
2023-05-21T17:33:21.555Z,31.90
2023-05-21T17:35:24.509Z,32.87
2023-05-21T17:37:27.234Z,31.94
2023-05-21T17:39:29.922Z,32.43
2023-05-21T17:41:32.500Z,33.04
2023-05-21T17:43:35.224Z,32.51
2023-05-21T17:45:38.070Z,32.09
2023-05-21T17:47:40.954Z,32.67
2023-05-21T17:49:43.573Z,32.54
2023-05-21T17:51:46.300Z,31.82
2023-05-21T17:53:49.128Z,31.52
2023-05-21T17:55:51.850Z,31.44
2023-05-21T17:57:54.455Z,32.88
2023-05-21T17:59:57.458Z,33.51
2023-05-21T18:02:01.827Z,32.23
2023-05-21T18:04:05.807Z,34.42
2023-05-21T18:06:09.510Z,33.07
2023-05-21T18:08:12.714Z,33.65
2023-05-21T18:10:15.725Z,32.29
2023-05-21T18:12:18.349Z,33.05
2023-05-21T18:14:20.981Z,32.89
2023-05-21T18:16:23.794Z,33.31
2023-05-21T18:18:26.617Z,33.31
2023-05-21T18:20:30.258Z,32.83
2023-05-21T18:22:32.945Z,34.03
2023-05-21T18:24:38.433Z,33.95
2023-05-21T18:26:42.201Z,34.25
2023-05-21T18:28:44.835Z,34.31
2023-05-21T18:30:47.473Z,34.73
2023-05-21T18:32:50.203Z,34.34
2023-05-21T18:34:52.820Z,34.37
2023-05-21T18:36:58.893Z,34.11
2023-05-21T18:39:01.606Z,34.38
2023-05-21T18:41:05.217Z,33.32
2023-05-21T18:43:08.079Z,33.69
2023-05-21T18:45:11.687Z,33.38
2023-05-21T18:47:14.359Z,34.00
2023-05-21T18:49:17.001Z,33.87
2023-05-21T18:51:19.689Z,33.83
2023-05-21T18:53:22.271Z,33.69
2023-05-21T18:55:25.294Z,32.39
2023-05-21T18:57:28.070Z,32.99
2023-05-21T18:59:31.371Z,33.61
2023-05-21T19:01:34.387Z,33.08
2023-05-21T19:03:38.361Z,33.96
2023-05-21T19:05:41.237Z,34.62
2023-05-21T19:07:44.006Z,34.51
2023-05-21T19:09:48.913Z,34.73
2023-05-21T19:11:51.936Z,35.12
2023-05-21T19:13:54.555Z,33.98
2023-05-21T19:15:58.826Z,35.67
2023-05-21T19:18:02.686Z,34.37
2023-05-21T19:20:09.276Z,35.58
2023-05-21T19:22:12.104Z,34.67
2023-05-21T19:24:14.806Z,34.81
2023-05-21T19:26:17.407Z,35.97
2023-05-21T19:28:20.067Z,36.27
2023-05-21T19:30:22.646Z,36.15
2023-05-21T19:32:25.580Z,35.67
2023-05-21T19:34:28.680Z,35.13
2023-05-21T19:36:44.392Z,35.26
2023-05-21T19:38:54.494Z,35.79
2023-05-21T19:40:57.338Z,35.47
2023-05-21T19:42:59.930Z,35.99
2023-05-21T19:45:02.576Z,35.77
2023-05-21T19:47:09.571Z,36.01
2023-05-21T19:49:14.168Z,36.27
2023-05-21T19:51:17.239Z,36.59
2023-05-21T19:53:19.913Z,34.34
2023-05-21T19:55:22.905Z,34.95
2023-05-21T19:57:25.915Z,35.01
2023-05-21T19:59:28.665Z,34.66
2023-05-21T20:01:34.694Z,35.64
2023-05-21T20:03:37.455Z,36.77
2023-05-21T20:05:40.199Z,35.45
2023-05-21T20:07:43.898Z,34.18
2023-05-21T20:09:46.725Z,34.89
2023-05-21T20:11:49.480Z,34.82
2023-05-21T20:13:53.358Z,34.18
2023-05-21T20:15:55.958Z,34.40
2023-05-21T20:17:59.473Z,35.03
2023-05-21T20:20:03.109Z,36.15
2023-05-21T20:22:06.647Z,35.67
2023-05-21T20:24:10.492Z,37.88
2023-05-21T20:26:14.019Z,36.39
2023-05-21T20:28:16.824Z,36.39
2023-05-21T20:30:19.542Z,36.76
2023-05-21T20:32:22.137Z,36.38
2023-05-21T20:34:24.974Z,36.01
2023-05-21T20:36:27.672Z,36.54
2023-05-21T20:38:33.308Z,37.20
2023-05-21T20:40:36.158Z,36.93
2023-05-21T20:42:40.414Z,38.27
2023-05-21T20:44:45.248Z,37.46
2023-05-21T20:46:48.457Z,37.12
2023-05-21T20:48:51.318Z,36.33
2023-05-21T20:50:53.943Z,36.73
2023-05-21T20:52:58.151Z,36.79
2023-05-21T20:55:04.791Z,36.81
2023-05-21T20:57:09.371Z,38.42
2023-05-21T20:59:12.463Z,37.61
2023-05-21T21:01:17.692Z,37.19
2023-05-21T21:03:22.342Z,37.65
2023-05-21T21:05:25.458Z,37.66
2023-05-21T21:07:30.261Z,37.55
2023-05-21T21:09:32.955Z,38.42
2023-05-21T21:11:35.866Z,38.30
2023-05-21T21:13:39.243Z,38.74
2023-05-21T21:15:44.034Z,41.01
2023-05-21T21:17:46.972Z,40.11
2023-05-21T21:19:49.863Z,40.20
2023-05-21T21:21:52.893Z,41.33
2023-05-21T21:23:55.663Z,42.52
2023-05-21T21:25:58.483Z,41.38
2023-05-21T21:28:01.127Z,40.81
2023-05-21T21:30:04.824Z,40.92
2023-05-21T21:32:09.535Z,41.06
2023-05-21T21:34:12.220Z,41.13
2023-05-21T21:36:15.007Z,42.20
2023-05-21T21:38:17.784Z,43.27
2023-05-21T21:40:20.500Z,43.24
2023-05-21T21:42:23.713Z,42.62
2023-05-21T21:44:26.522Z,41.26
2023-05-21T21:46:29.351Z,41.95
2023-05-21T21:48:32.002Z,42.01
2023-05-21T21:50:34.841Z,41.08
2023-05-21T21:52:41.781Z,42.31
2023-05-21T21:54:44.503Z,42.66
2023-05-21T21:56:47.253Z,42.12
2023-05-21T21:58:49.834Z,40.96
2023-05-21T22:00:53.716Z,41.24
2023-05-21T22:02:56.992Z,41.51
2023-05-21T22:04:59.942Z,42.77
2023-05-21T22:07:02.937Z,42.61
2023-05-21T22:09:07.067Z,43.26
2023-05-21T22:11:11.134Z,42.98
2023-05-21T22:13:14.421Z,42.32
2023-05-21T22:15:25.211Z,43.91
2023-05-21T22:17:28.902Z,43.39
2023-05-21T22:19:32.997Z,42.71
2023-05-21T22:21:35.880Z,43.53
2023-05-21T22:23:39.001Z,42.46
2023-05-21T22:25:41.969Z,42.91
2023-05-21T22:27:44.886Z,43.93
2023-05-21T22:29:47.700Z,44.49
2023-05-21T22:31:50.420Z,43.35
2023-05-21T22:33:53.208Z,43.64
2023-05-21T22:35:55.974Z,43.45
2023-05-21T22:37:59.000Z,43.98
2023-05-21T22:40:01.755Z,43.63
2023-05-21T22:42:05.640Z,43.84
2023-05-21T22:44:08.298Z,44.14
2023-05-21T22:46:11.613Z,44.02
2023-05-21T22:48:14.496Z,44.01
2023-05-21T22:50:18.215Z,44.05
2023-05-21T22:52:24.367Z,43.17
2023-05-21T22:54:27.100Z,43.00
2023-05-21T22:56:29.829Z,43.55
2023-05-21T22:58:32.695Z,44.22
2023-05-21T23:00:35.385Z,44.71
2023-05-21T23:02:38.330Z,43.35
2023-05-21T23:04:44.357Z,43.92
2023-05-21T23:06:47.882Z,44.41
2023-05-21T23:08:50.570Z,42.91
2023-05-21T23:10:53.280Z,43.92
2023-05-21T23:12:56.050Z,41.80
2023-05-21T23:14:58.845Z,41.11
2023-05-21T23:17:04.753Z,40.47
2023-05-21T23:19:07.579Z,39.98
2023-05-21T23:21:10.395Z,39.22
2023-05-21T23:23:13.186Z,38.75
2023-05-21T23:25:15.883Z,39.95
2023-05-21T23:27:18.646Z,39.03
2023-05-21T23:29:21.782Z,38.59
2023-05-21T23:31:24.691Z,38.03
2023-05-21T23:33:27.487Z,37.87
2023-05-21T23:35:30.448Z,39.21
2023-05-21T23:37:33.092Z,37.27
2023-05-21T23:39:36.801Z,37.29
2023-05-21T23:41:39.597Z,37.18
2023-05-21T23:43:42.222Z,37.29
2023-05-21T23:45:44.994Z,38.19
2023-05-21T23:47:47.921Z,37.00
2023-05-21T23:49:50.620Z,37.96
2023-05-21T23:51:53.668Z,36.63
2023-05-21T23:53:56.482Z,35.75
2023-05-21T23:55:59.183Z,35.67
2023-05-21T23:58:01.844Z,37.24
